sensor_id;sensor_type;location;lat;lon;timestamp;pressure;altitude;pressure_sealevel;temperature;humidity
71642;BME280;60657;50.122;14.468;2022-08-21T00:02:45;98189.57771205486;;;18.88494697489891;85.56557564660105
71642;BME280;60657;50.122;14.468;2022-08-21T00:05:49;98188.75436478203;;;18.914320592050046;85.09445334554056
71642;BME280;60657;50.122;14.468;2022-08-21T00:08:51;98187.05437060223;;;18.922331578545815;84.98001068131532
71642;BME280;60657;50.122;14.468;2022-08-21T00:11:53;98188.80760600427;;;18.895628290226597;85.21080338750286
71642;BME280;60657;50.122;14.468;2022-08-21T00:14:55;98195.65983540061;;;18.84222171358816;85.30617227435721
71642;BME280;60657;50.122;14.468;2022-08-21T00:17:57;98186.44371130348;;;18.852903028915847;85.36911573968109
71642;BME280;60657;50.122;14.468;2022-08-21T00:20:59;98185.62034785339;;;18.836881055924316;85.323338673991
71642;BME280;60657;50.122;14.468;2022-08-21T00:24:00;98182.4853483156;;;18.786144808117797;85.61898222323948
71642;BME280;60657;50.122;14.468;2022-08-21T00:27:03;98184.69087135606;;;18.882276646066984;85.51407644769971
71642;BME280;60657;50.122;14.468;2022-08-21T00:30:06;98194.17101696206;;;18.79949645227741;85.42061493858243
71642;BME280;60657;50.122;14.468;2022-08-21T00:33:10;98183.97363128891;;;18.83421072709239;85.66285191119249
71642;BME280;60657;50.122;14.468;2022-08-21T00:36:12;98184.07937307218;;;18.802166781109328;85.64187075608453
71642;BME280;60657;50.122;14.468;2022-08-21T00:39:14;98176.77434719623;;;18.69001297016861;85.7486839093614
71642;BME280;60657;50.122;14.468;2022-08-21T00:42:16;98177.59771261833;;;18.68734264133669;85.74677653162432
71642;BME280;60657;50.122;14.468;2022-08-21T00:45:18;98174.86404239906;;;18.722056916151672;85.82688639658198
71642;BME280;60657;50.122;14.468;2022-08-21T00:48:20;98180.68023950783;;;18.788815136949722;85.80018310826276
71642;BME280;60657;50.122;14.468;2022-08-21T00:51:25;98178.31583399577;;;18.743419546807047;85.49881742580301
71642;BME280;60657;50.122;14.468;2022-08-21T00:54:34;98175.634358248;;;18.77279316395819;85.63614862287328
71642;BME280;60657;50.122;14.468;2022-08-21T00:57:39;98170.80039505083;;;18.68734264133669;85.72770275425346
71642;BME280;60657;50.122;14.468;2022-08-21T01:00:48;98169.46888739204;;;18.633936064698254;85.7811093308919
71642;BME280;60657;50.122;14.468;2022-08-21T01:03:51;98174.30427162787;;;18.682001983672848;85.49881742580301
71642;BME280;60657;50.122;14.468;2022-08-21T01:06:53;98174.30427162787;;;18.695353627832453;85.92034790569924
71642;BME280;60657;50.122;14.468;2022-08-21T01:09:55;98173.53335099149;;;18.682001983672848;85.9546807049668
71642;BME280;60657;50.122;14.468;2022-08-21T01:12:57;98166.78926275813;;;18.719386587319754;85.8383306630045
71642;BME280;60657;50.122;14.468;2022-08-21T01:16:00;98167.50722389887;;;18.682001983672848;85.88601510643167
71642;BME280;60657;50.122;14.468;2022-08-21T01:19:06;98165.96596211402;;;18.649958037689785;85.84977492942703
71642;BME280;60657;50.122;14.468;2022-08-21T01:22:09;98160.20295423425;;;18.633936064698254;85.97375448233768
71642;BME280;60657;50.122;14.468;2022-08-21T01:25:12;98159.27453748268;;;18.636606393530172;86.046234836347
71642;BME280;60657;50.122;14.468;2022-08-21T01:28:17;98156.08662358868;;;18.615243762874798;86.20836194399939
71642;BME280;60657;50.122;14.468;2022-08-21T01:31:23;98150.37623515986;;;18.58587014572366;86.18547341115435
71642;BME280;60657;50.122;14.468;2022-08-21T01:34:27;98149.13195662928;;;18.67399099717708;86.0443274586099
71642;BME280;60657;50.122;14.468;2022-08-21T01:37:29;98145.06908887172;;;18.599221789883266;86.02334630350195
71642;BME280;60657;50.122;14.468;2022-08-21T01:40:31;98154.22971256197;;;18.609903105210954;85.81544213015945
71642;BME280;60657;50.122;14.468;2022-08-21T01:43:32;98150.93689711795;;;18.62859540703441;86.09391927977417
71642;BME280;60657;50.122;14.468;2022-08-21T01:46:34;98149.29051010434;;;18.62058442053864;86.03288319218738
71642;BME280;60657;50.122;14.468;2022-08-21T01:49:36;98145.83934353577;;;18.64461738002594;85.8822003509575
71642;BME280;60657;50.122;14.468;2022-08-21T01:52:40;98145.83934353577;;;18.657969024185547;86.0309758144503
71642;BME280;60657;50.122;14.468;2022-08-21T01:55:42;98145.68011191193;;;18.69802395666438;85.90127412832837
71642;BME280;60657;50.122;14.468;2022-08-21T01:58:45;98146.66249163335;;;18.67132066834516;86.01953154802777
71642;BME280;60657;50.122;14.468;2022-08-21T02:01:48;98145.89224347813;;;18.639276722362098;86.12634470130465
71642;BME280;60657;50.122;14.468;2022-08-21T02:04:50;98138.3782670262;;;18.649958037689785;86.25795376516365
71642;BME280;60657;50.122;14.468;2022-08-21T02:07:53;98137.28938913177;;;18.641947051194016;86.177843900206
71642;BME280;60657;50.122;14.468;2022-08-21T02:10:56;98129.66820384556;;;18.68734264133669;86.28656443121996
71642;BME280;60657;50.122;14.468;2022-08-21T02:13:58;98123.24475070518;;;18.623254749370567;86.2674906538491
71642;BME280;60657;50.122;14.468;2022-08-21T02:17:00;98130.65174173914;;;18.665980010681317;86.24460212100405
71642;BME280;60657;50.122;14.468;2022-08-21T02:20:03;98137.39596473485;;;18.676661326009004;86.40863660639353
71642;BME280;60657;50.122;14.468;2022-08-21T02:23:06;98130.81149899532;;;18.665980010681317;86.2808422980087
71642;BME280;60657;50.122;14.468;2022-08-21T02:26:10;98128.44838329531;;;18.625925078202485;86.43915465018692
71642;BME280;60657;50.122;14.468;2022-08-21T02:29:13;98125.05027268178;;;18.609903105210954;86.4582284275578
71642;BME280;60657;50.122;14.468;2022-08-21T02:32:14;98124.1741700206;;;18.607232776379035;86.71953917753872
71642;BME280;60657;50.122;14.468;2022-08-21T02:35:16;98130.35805222273;;;18.53513389791714;86.90264744029908
71642;BME280;60657;50.122;14.468;2022-08-21T02:38:19;98119.44775731812;;;18.53513389791714;86.92172121766994
71642;BME280;60657;50.122;14.468;2022-08-21T02:41:24;98119.34215139651;;;18.54581521324483;86.98084992751964
71642;BME280;60657;50.122;14.468;2022-08-21T02:44:25;98122.5281632463;;;18.56984817273213;87.05523765926604
71642;BME280;60657;50.122;14.468;2022-08-21T02:47:27;98117.03133540723;;;18.481727321278704;87.19829098954757
71642;BME280;60657;50.122;14.468;2022-08-21T02:50:30;98112.86366062825;;;18.51110093842985;87.24406805523766
71642;BME280;60657;50.122;14.468;2022-08-21T02:53:34;98116.97869513491;;;18.51911192492561;87.34706645304036
71642;BME280;60657;50.122;14.468;2022-08-21T02:56:37;98117.90692427028;;;18.48439765011063;87.46532387273976
71642;BME280;60657;50.122;14.468;2022-08-21T02:59:38;98124.54389855584;;;18.505760280766005;87.48249027237354
71642;BME280;60657;50.122;14.468;2022-08-21T03:02:40;98120.6376855077;;;18.404287785152974;87.61028458075837
71642;BME280;60657;50.122;14.468;2022-08-21T03:05:42;98123.05481935314;;;18.463035019455255;87.77431906614785
71642;BME280;60657;50.122;14.468;2022-08-21T03:08:45;98126.24254235385;;;18.492408636606392;87.5912108033875
71642;BME280;60657;50.122;14.468;2022-08-21T03:11:47;98129.42980735516;;;18.521782253757536;87.46913862821393
71642;BME280;60657;50.122;14.468;2022-08-21T03:14:49;98126.03207518836;;;18.54314488441291;87.58167391470207
71642;BME280;60657;50.122;14.468;2022-08-21T03:17:51;98117.85436261997;;;18.532463569085223;87.71519035629817
71642;BME280;60657;50.122;14.468;2022-08-21T03:20:53;98124.33315664015;;;18.56984817273213;87.65224689097428
71642;BME280;60657;50.122;14.468;2022-08-21T03:23:55;98117.48395095486;;;18.61257343404288;87.55497062638285
71642;BME280;60657;50.122;14.468;2022-08-21T03:26:57;98129.11227319759;;;18.609903105210954;87.49584191653315
71642;BME280;60657;50.122;14.468;2022-08-21T03:29:59;98129.88206001848;;;18.625925078202485;87.54352635996032
71642;BME280;60657;50.122;14.468;2022-08-21T03:33:02;98130.86457416903;;;18.58587014572366;87.6655985351339
71642;BME280;60657;50.122;14.468;2022-08-21T03:36:05;98136.73206322755;;;18.63126573586633;87.61791409170672
71642;BME280;60657;50.122;14.468;2022-08-21T03:39:08;98135.58989101379;;;18.684672312504766;87.39665827420463
71642;BME280;60657;50.122;14.468;2022-08-21T03:42:11;98139.6515709224;;;18.69001297016861;87.33371480888076
71642;BME280;60657;50.122;14.468;2022-08-21T03:45:13;98149.90208014072;;;18.708705271992066;87.32990005340658
71642;BME280;60657;50.122;14.468;2022-08-21T03:48:16;98139.0421156755;;;18.67399099717708;87.33562218661784
71642;BME280;60657;50.122;14.468;2022-08-21T03:51:18;98146.60949310019;;;18.676661326009004;87.47867551689937
71642;BME280;60657;50.122;14.468;2022-08-21T03:54:20;98136.4129279647;;;18.684672312504766;87.52254520485236
71642;BME280;60657;50.122;14.468;2022-08-21T03:57:22;98138.98885226561;;;18.649958037689785;87.57213702601663
71642;BME280;60657;50.122;14.468;2022-08-21T04:00:24;98136.51966092145;;;18.65529869535363;87.39665827420463
71642;BME280;60657;50.122;14.468;2022-08-21T04:03:26;98145.06908887172;;;18.61257343404288;87.61409933623254
71642;BME280;60657;50.122;14.468;2022-08-21T04:06:29;98140.84759861238;;;18.692683299000535;87.41763942931259
71642;BME280;60657;50.122;14.468;2022-08-21T04:09:31;98150.32390570857;;;18.57785915922789;87.63698786907759
71642;BME280;60657;50.122;14.468;2022-08-21T04:12:33;98159.37968120057;;;18.64461738002594;87.46723125047684
71642;BME280;60657;50.122;14.468;2022-08-21T04:15:35;98158.5038940291;;;18.660639353017473;87.43289845120928
71642;BME280;60657;50.122;14.468;2022-08-21T04:18:37;98167.82218917532;;;18.65529869535363;87.40047302967879
71642;BME280;60657;50.122;14.468;2022-08-21T04:21:39;98165.35216774598;;;18.62859540703441;87.57213702601663
71642;BME280;60657;50.122;14.468;2022-08-21T04:24:41;98162.05885418622;;;18.61257343404288;87.5606927595941
71642;BME280;60657;50.122;14.468;2022-08-21T04:27:43;98166.27974442516;;;18.572518501564048;87.6503395132372
71642;BME280;60657;50.122;14.468;2022-08-21T04:30:46;98162.93430171727;;;18.609903105210954;87.72854200045776
71642;BME280;60657;50.122;14.468;2022-08-21T04:33:48;98168.08222335923;;;18.56984817273213;87.86968795300221
71642;BME280;60657;50.122;14.468;2022-08-21T04:36:50;98167.10310480635;;;18.599221789883266;87.86968795300221
71642;BME280;60657;50.122;14.468;2022-08-21T04:39:52;98171.32396319203;;;18.593881132219423;87.69230182345312
71642;BME280;60657;50.122;14.468;2022-08-21T04:42:56;98178.83852599295;;;18.668650339513235;87.7094682230869
71642;BME280;60657;50.122;14.468;2022-08-21T04:46:02;98169.46888739204;;;18.617914091706723;87.71709773403525
71642;BME280;60657;50.122;14.468;2022-08-21T04:49:04;98176.16029692836;;;18.657969024185547;87.56832227054245
71642;BME280;60657;50.122;14.468;2022-08-21T04:52:05;98181.30889233996;;;18.65529869535363;87.65796902418555
71642;BME280;60657;50.122;14.468;2022-08-21T04:55:07;98183.77928976764;;;18.684672312504766;87.52635996032654
71642;BME280;60657;50.122;14.468;2022-08-21T04:58:09;98176.21240329217;;;18.58587014572366;87.51110093842985
71642;BME280;60657;50.122;14.468;2022-08-21T05:01:17;98186.86478976267;;;18.708705271992066;87.4138246738384
71642;BME280;60657;50.122;14.468;2022-08-21T05:04:29;98194.58855761716;;;18.67132066834516;87.5473411154345
71642;BME280;60657;50.122;14.468;2022-08-21T05:07:34;98186.2497182711;;;18.617914091706723;87.58548867017625
71642;BME280;60657;50.122;14.468;2022-08-21T05:10:37;98196.23563608507;;;18.625925078202485;87.7094682230869
71642;BME280;60657;50.122;14.468;2022-08-21T05:13:39;98182.13235469603;;;18.495078965438317;88.02800030518044
71642;BME280;60657;50.122;14.468;2022-08-21T05:16:42;98183.77928976764;;;18.580529488059817;88.04516670481422
71642;BME280;60657;50.122;14.468;2022-08-21T05:19:44;98189.54367127406;;;18.564507515068286;88.12718394750897
71642;BME280;60657;50.122;14.468;2022-08-21T05:22:46;98183.72735964513;;;18.633936064698254;87.95742732890821
71642;BME280;60657;50.122;14.468;2022-08-21T05:25:48;98195.36020283373;;;18.65529869535363;87.6350804913405
71642;BME280;60657;50.122;14.468;2022-08-21T05:28:49;98198.86154430373;;;18.67399099717708;87.4882124055848
71642;BME280;60657;50.122;14.468;2022-08-21T05:31:51;98208.74478782498;;;18.74876020447089;87.28603036545357
71642;BME280;60657;50.122;14.468;2022-08-21T05:34:54;98204.31496383513;;;18.810177767605097;86.96368352788586
71642;BME280;60657;50.122;14.468;2022-08-21T05:37:56;98209.51661814;;;18.796826123445484;86.75387197680628
71642;BME280;60657;50.122;14.468;2022-08-21T05:40:58;98213.58281612313;;;18.770122835126266;86.83779659723811
71642;BME280;60657;50.122;14.468;2022-08-21T05:44:00;98221.2031455278;;;18.74876020447089;86.79011215381094
71642;BME280;60657;50.122;14.468;2022-08-21T05:47:03;98214.25007832472;;;18.794155794613566;86.53452353704128
71642;BME280;60657;50.122;14.468;2022-08-21T05:50:07;98217.4921615666;;;18.839551384756234;86.28465705348287
71642;BME280;60657;50.122;14.468;2022-08-21T05:53:09;98212.6028879734;;;18.831540398260472;86.3399710078584
71642;BME280;60657;50.122;14.468;2022-08-21T05:56:12;98213.21679359795;;;18.855573357747765;86.33806363012131
71642;BME280;60657;50.122;14.468;2022-08-21T05:59:14;98213.16414989231;;;18.91699092088197;86.1187151903563
71642;BME280;60657;50.122;14.468;2022-08-21T06:02:16;98203.62856333278;;;18.975738155184253;85.89936675059128
71642;BME280;60657;50.122;14.468;2022-08-21T06:05:19;98210.21601330441;;;18.98641947051194;85.89173723964294
71642;BME280;60657;50.122;14.468;2022-08-21T06:08:21;98206.15219360686;;;18.98641947051194;85.75440604257267
71642;BME280;60657;50.122;14.468;2022-08-21T06:11:24;98210.16251221813;;;19.02113374532692;85.49881742580301
71642;BME280;60657;50.122;14.468;2022-08-21T06:14:26;98210.48218744661;;;18.965056839856565;85.30617227435721
71642;BME280;60657;50.122;14.468;2022-08-21T06:17:28;98220.62893035245;;;18.949034866865034;85.37865262836652
71642;BME280;60657;50.122;14.468;2022-08-21T06:20:30;98220.62893035245;;;18.97039749752041;85.542687113756
71642;BME280;60657;50.122;14.468;2022-08-21T06:23:32;98226.07596587246;;;19.071869993133447;85.3519493400473
71642;BME280;60657;50.122;14.468;2022-08-21T06:26:35;98226.89951793097;;;19.039826047150385;85.21461814297703
71642;BME280;60657;50.122;14.468;2022-08-21T06:29:36;98224.16140386534;;;19.03181506065461;85.36911573968109
71642;BME280;60657;50.122;14.468;2022-08-21T06:32:40;98220.31119772475;;;19.03715571831846;85.26993209735257
71642;BME280;60657;50.122;14.468;2022-08-21T06:35:42;98218.77037791276;;;18.98641947051194;85.23941405355917
71642;BME280;60657;50.122;14.468;2022-08-21T06:38:44;98230.30026644975;;;19.03181506065461;85.10017547875181
71642;BME280;60657;50.122;14.468;2022-08-21T06:41:46;98225.14567630796;;;19.06385900663767;84.90371557183184
71642;BME280;60657;50.122;14.468;2022-08-21T06:44:49;98228.94069941062;;;19.20805676356146;84.7625696192874
71642;BME280;60657;50.122;14.468;2022-08-21T06:47:50;98230.47937210204;;;19.22140840772107;84.47264820325017
71642;BME280;60657;50.122;14.468;2022-08-21T06:50:52;98231.19416704724;;;19.266803997863732;84.27428091859312
71642;BME280;60657;50.122;14.468;2022-08-21T06:53:55;98226.30782691833;;;19.205386434729533;84.12359807736324
71642;BME280;60657;50.122;14.468;2022-08-21T06:56:56;98229.60162875053;;;19.20805676356146;84.28953994048982
71642;BME280;60657;50.122;14.468;2022-08-21T06:59:58;98233.71895821659;;;19.22140840772107;84.24948500801099
71642;BME280;60657;50.122;14.468;2022-08-21T07:03:00;98237.89074801578;;;19.23208972304876;84.05302510109102
71642;BME280;60657;50.122;14.468;2022-08-21T07:06:03;98229.38364303618;;;19.27481498435951;84.05683985656519
71642;BME280;60657;50.122;14.468;2022-08-21T07:09:07;98226.91340690455;;;19.242771038376446;83.79362172884719
71642;BME280;60657;50.122;14.468;2022-08-21T07:12:09;98239.42887994419;;;19.261463340199896;83.94621194781415
71642;BME280;60657;50.122;14.468;2022-08-21T07:15:11;98234.37889779483;;;19.296177615014884;83.97672999160754
71642;BME280;60657;50.122;14.468;2022-08-21T07:18:13;98239.97856883187;;;19.34958419165332;83.70778973067826
71642;BME280;60657;50.122;14.468;2022-08-21T07:21:16;98244.58751405177;;;19.290836957351033;83.10505836575875
71642;BME280;60657;50.122;14.468;2022-08-21T07:24:18;98243.87223426037;;;19.253452353704134;83.31296253910125
71642;BME280;60657;50.122;14.468;2022-08-21T07:27:20;98246.2346191949;;;19.296177615014884;83.16800183108263
71642;BME280;60657;50.122;14.468;2022-08-21T07:30:22;98241.07586365734;;;19.330891889829857;83.14129854276341
71642;BME280;60657;50.122;14.468;2022-08-21T07:33:26;98245.79775257141;;;19.41100175478752;83.06500343327993
71642;BME280;60657;50.122;14.468;2022-08-21T07:36:30;98234.37251143763;;;19.531166552224008;82.56336308842603
71642;BME280;60657;50.122;14.468;2022-08-21T07:39:32;98245.18776830935;;;19.57656214236667;82.36690318150606
71642;BME280;60657;50.122;14.468;2022-08-21T07:42:34;98236.81528058041;;;19.82757305256733;81.7279316395819
71642;BME280;60657;50.122;14.468;2022-08-21T07:45:41;98236.82645972823;;;20.051880674448768;81.0222018768597
71642;BME280;60657;50.122;14.468;2022-08-21T07:48:44;98239.04819338447;;;20.34828717479209;80.06279087510491
71642;BME280;60657;50.122;14.468;2022-08-21T07:51:46;98240.54054478009;;;20.60196841382468;79.8720531013962
71642;BME280;60657;50.122;14.468;2022-08-21T07:54:48;98236.2513020759;;;20.8503089951934;79.14534218356603
71642;BME280;60657;50.122;14.468;2022-08-21T07:57:50;98242.19513219639;;;21.007858396276802;78.15350576028077
71642;BME280;60657;50.122;14.468;2022-08-21T08:00:51;98245.92092991373;;;21.117341878385602;77.23033493553064
71642;BME280;60657;50.122;14.468;2022-08-21T08:03:53;98242.56664523848;;;21.133363851377126;76.99763485160601
71642;BME280;60657;50.122;14.468;2022-08-21T08:06:55;98245.16315566101;;;21.03723201342794;76.3949034866865
71642;BME280;60657;50.122;14.468;2022-08-21T08:09:57;98252.37056997324;;;21.058594644083314;76.29762722209506
71642;BME280;60657;50.122;14.468;2022-08-21T08:12:59;98254.96759605352;;;21.10399023422599;76.17746242465859
71642;BME280;60657;50.122;14.468;2022-08-21T08:16:01;98248.64630812468;;;21.04257267109179;76.14885175860228
71642;BME280;60657;50.122;14.468;2022-08-21T08:19:03;98247.63040868932;;;21.08529793240254;76.32814526588845
71642;BME280;60657;50.122;14.468;2022-08-21T08:22:12;98234.51445271718;;;21.186770428015564;75.71587701228351
71642;BME280;60657;50.122;14.468;2022-08-21T08:25:15;98244.74208231675;;;21.320286869611664;75.42595559624628
71642;BME280;60657;50.122;14.468;2022-08-21T08:28:17;98248.85322741022;;;21.34164950026704;74.3921568627451
71642;BME280;60657;50.122;14.468;2022-08-21T08:31:19;98232.43970267999;;;21.64873731593805;74.37308308537423
71642;BME280;60657;50.122;14.468;2022-08-21T08:34:21;98234.01518417196;;;21.680781261921112;74.43411917296102
71642;BME280;60657;50.122;14.468;2022-08-21T08:37:25;98234.07883988158;;;21.87571526665141;73.84092469672694
71642;BME280;60657;50.122;14.468;2022-08-21T08:40:28;98231.99293588146;;;22.177462424658586;71.51773861295491
71642;BME280;60657;50.122;14.468;2022-08-21T08:43:40;98230.27863092779;;;22.134737163347836;71.75234607461661
71642;BME280;60657;50.122;14.468;2022-08-21T08:46:48;98235.48274540866;;;22.49256122682536;72.29785610742351
71642;BME280;60657;50.122;14.468;2022-08-21T08:49:55;98234.08134592479;;;22.708857862211033;70.61745632104981
71642;BME280;60657;50.122;14.468;2022-08-21T08:53:05;98224.22296937289;;;22.91447318226902;69.80872816052491
71642;BME280;60657;50.122;14.468;2022-08-21T08:56:13;98227.88388637065;;;22.76226443884947;69.043869687953
71642;BME280;60657;50.122;14.468;2022-08-21T08:59:16;98230.7163119124;;;22.572671091783022;69.44823376821546
71642;BME280;60657;50.122;14.468;2022-08-21T09:02:24;98222.95555150519;;;22.55931944762341;70.59266041046769
71642;BME280;60657;50.122;14.468;2022-08-21T09:05:26;98223.85077993856;;;22.54329747463187;70.54497596704051
71642;BME280;60657;50.122;14.468;2022-08-21T09:08:36;98226.75675843538;;;22.479209582665746;71.45670252536813
71642;BME280;60657;50.122;14.468;2022-08-21T09:11:52;98220.17962564777;;;23.02395666437782;70.1348897535668
71642;BME280;60657;50.122;14.468;2022-08-21T09:15:06;98215.1488542089;;;23.480582894636456;68.35721370260167
71642;BME280;60657;50.122;14.468;2022-08-21T09:18:23;98208.05263039464;;;23.883802548256654;66.91714351110093
71642;BME280;60657;50.122;14.468;2022-08-21T09:21:40;98212.40001127879;;;24.001297016861216;65.67734798199436
71642;BME280;60657;50.122;14.468;2022-08-21T09:24:52;98218.03016191698;;;24.343099107347214;66.58907454032196
71642;BME280;60657;50.122;14.468;2022-08-21T09:28:06;98209.63226057278;;;24.775692378118563;64.73891813534752
71642;BME280;60657;50.122;14.468;2022-08-21T09:31:11;98216.36173157464;;;24.4392309452964;63.90539406424048
71642;BME280;60657;50.122;14.468;2022-08-21T09:34:29;98210.4175520525;;;24.084077210650804;63.99313344014648
71642;BME280;60657;50.122;14.468;2022-08-21T09:37:33;98204.84391786643;;;24.073395895323117;64.38605325398642
71642;BME280;60657;50.122;14.468;2022-08-21T09:40:38;98210.0145211525;;;23.97993438620584;65.40840772106507
71642;BME280;60657;50.122;14.468;2022-08-21T09:43:51;98210.7595176092;;;23.881132219424728;64.94491493095292
71642;BME280;60657;50.122;14.468;2022-08-21T09:46:55;98208.54114508262;;;23.71557183184558;64.64354924849317
71642;BME280;60657;50.122;14.468;2022-08-21T09:50:06;98209.18742048818;;;23.63012130922408;64.57488364995804
71642;BME280;60657;50.122;14.468;2022-08-21T09:53:15;98204.84367909227;;;23.56870374608988;65.32829785610743
71642;BME280;60657;50.122;14.468;2022-08-21T09:56:22;98205.75486724538;;;23.779659723811704;66.09697108415351
71642;BME280;60657;50.122;14.468;2022-08-21T09:59:30;98196.23830485223;;;23.921187151903567;64.92202639810787
71642;BME280;60657;50.122;14.468;2022-08-21T10:02:34;98211.17022760076;;;23.806363012130916;64.48332951857786
71642;BME280;60657;50.122;14.468;2022-08-21T10:05:37;98201.32690020662;;;23.80903334096284;64.85336079957274
71642;BME280;60657;50.122;14.468;2022-08-21T10:08:41;98201.97829943117;;;23.622110322728318;64.08278019378957
71642;BME280;60657;50.122;14.468;2022-08-21T10:11:44;98205.08519359322;;;23.499275196459905;64.6988632028687
71642;BME280;60657;50.122;14.468;2022-08-21T10:14:58;98204.68221626715;;;23.659494926375217;65.32448310063324
71642;BME280;60657;50.122;14.468;2022-08-21T10:18:17;98191.64799119669;;;23.865110246433204;65.76317998016327
71642;BME280;60657;50.122;14.468;2022-08-21T10:21:27;98200.17881012376;;;23.846417944609755;64.08087281605249
71642;BME280;60657;50.122;14.468;2022-08-21T10:24:42;98189.17943274346;;;24.006637674525066;63.33508812085145
71642;BME280;60657;50.122;14.468;2022-08-21T10:27:56;98193.71272883723;;;24.391165026321815;62.471046005951024
71642;BME280;60657;50.122;14.468;2022-08-21T10:31:08;98186.54065435677;;;24.65285725185015;61.20454718852521
71642;BME280;60657;50.122;14.468;2022-08-21T10:34:29;98179.25303064017;;;24.690241855497064;61.55550469214923
71642;BME280;60657;50.122;14.468;2022-08-21T10:37:50;98174.29390213246;;;25.040054932478824;60.07537956816968
71642;BME280;60657;50.122;14.468;2022-08-21T10:41:04;98166.11542516643;;;25.39787899595636;59.035858701457244
71642;BME280;60657;50.122;14.468;2022-08-21T10:44:30;98166.13161208862;;;26.26573586633097;57.34592202639811
71642;BME280;60657;50.122;14.468;2022-08-21T10:47:42;98167.74965044617;;;26.50339513237202;57.45273517967498
71642;BME280;60657;50.122;14.468;2022-08-21T10:50:50;98161.7907631142;;;26.364538033112083;55.3431754024567
71642;BME280;60657;50.122;14.468;2022-08-21T10:53:59;98156.88121540738;;;26.145571068894483;55.982146944380865
71642;BME280;60657;50.122;14.468;2022-08-21T10:57:14;98158.37543131453;;;25.83314259555962;58.02113374532692
71642;BME280;60657;50.122;14.468;2022-08-21T11:00:33;98162.3657280878;;;25.472648203250174;58.16990920881972
71642;BME280;60657;50.122;14.468;2022-08-21T11:03:43;98159.25645998694;;;25.619516289005873;58.56855115587091
71642;BME280;60657;50.122;14.468;2022-08-21T11:06:59;98157.49734486558;;;25.670252536812384;58.2309452964065
71642;BME280;60657;50.122;14.468;2022-08-21T11:10:12;98155.60674669327;;;25.5607690547036;58.50179293507286